sensor_id;sensor_type;location;lat;lon;timestamp;P1;durP1;ratioP1;P2;durP2;ratioP2
8036;SDS011;4061;51.360;7.340;2023-06-14T00:01:47;6.68;;;3.47;;
8036;SDS011;4061;51.360;7.340;2023-06-14T00:04:14;5.78;;;3.17;;
8036;SDS011;4061;51.360;7.340;2023-06-14T00:06:44;3.45;;;2.95;;
8036;SDS011;4061;51.360;7.340;2023-06-14T00:09:11;4.50;;;2.97;;
8036;SDS011;4061;51.360;7.340;2023-06-14T00:11:38;3.97;;;3.17;;
8036;SDS011;4061;51.360;7.340;2023-06-14T00:14:05;6.82;;;3.85;;
8036;SDS011;4061;51.360;7.340;2023-06-14T00:16:34;3.20;;;2.90;;
8036;SDS011;4061;51.360;7.340;2023-06-14T00:19:02;3.72;;;3.17;;
8036;SDS011;4061;51.360;7.340;2023-06-14T00:21:32;7.80;;;3.85;;
8036;SDS011;4061;51.360;7.340;2023-06-14T00:24:13;5.43;;;3.28;;
8036;SDS011;4061;51.360;7.340;2023-06-14T00:26:40;4.90;;;3.15;;
8036;SDS011;4061;51.360;7.340;2023-06-14T00:29:08;5.22;;;3.30;;
8036;SDS011;4061;51.360;7.340;2023-06-14T00:31:36;5.40;;;3.05;;
8036;SDS011;4061;51.360;7.340;2023-06-14T00:34:03;6.93;;;3.65;;
8036;SDS011;4061;51.360;7.340;2023-06-14T00:36:30;4.65;;;3.53;;
8036;SDS011;4061;51.360;7.340;2023-06-14T00:38:57;4.07;;;3.42;;
8036;SDS011;4061;51.360;7.340;2023-06-14T00:41:24;5.50;;;3.53;;
8036;SDS011;4061;51.360;7.340;2023-06-14T00:43:52;3.63;;;3.20;;
8036;SDS011;4061;51.360;7.340;2023-06-14T00:46:21;4.00;;;3.13;;
8036;SDS011;4061;51.360;7.340;2023-06-14T00:48:50;3.17;;;2.67;;
8036;SDS011;4061;51.360;7.340;2023-06-14T00:51:17;6.85;;;3.42;;
8036;SDS011;4061;51.360;7.340;2023-06-14T00:53:45;7.35;;;3.35;;
8036;SDS011;4061;51.360;7.340;2023-06-14T00:56:13;3.72;;;3.03;;
8036;SDS011;4061;51.360;7.340;2023-06-14T00:58:40;2.85;;;2.53;;
8036;SDS011;4061;51.360;7.340;2023-06-14T01:01:07;4.75;;;3.20;;
8036;SDS011;4061;51.360;7.340;2023-06-14T01:03:34;4.78;;;2.25;;
8036;SDS011;4061;51.360;7.340;2023-06-14T01:06:05;4.07;;;2.90;;
8036;SDS011;4061;51.360;7.340;2023-06-14T01:08:37;4.57;;;3.42;;
8036;SDS011;4061;51.360;7.340;2023-06-14T01:11:10;3.63;;;2.53;;
8036;SDS011;4061;51.360;7.340;2023-06-14T01:13:39;5.68;;;3.28;;
8036;SDS011;4061;51.360;7.340;2023-06-14T01:16:06;5.32;;;2.70;;
8036;SDS011;4061;51.360;7.340;2023-06-14T01:18:34;3.92;;;2.67;;
8036;SDS011;4061;51.360;7.340;2023-06-14T01:21:02;3.00;;;2.53;;
8036;SDS011;4061;51.360;7.340;2023-06-14T01:23:32;4.93;;;2.30;;
8036;SDS011;4061;51.360;7.340;2023-06-14T01:25:59;2.60;;;2.40;;
8036;SDS011;4061;51.360;7.340;2023-06-14T01:28:28;4.82;;;2.70;;
8036;SDS011;4061;51.360;7.340;2023-06-14T01:30:57;7.28;;;2.30;;
8036;SDS011;4061;51.360;7.340;2023-06-14T01:33:28;6.22;;;2.97;;
8036;SDS011;4061;51.360;7.340;2023-06-14T01:35:55;2.70;;;2.50;;
8036;SDS011;4061;51.360;7.340;2023-06-14T01:38:23;6.03;;;2.92;;
8036;SDS011;4061;51.360;7.340;2023-06-14T01:40:52;6.50;;;2.60;;
8036;SDS011;4061;51.360;7.340;2023-06-14T01:43:20;3.08;;;2.25;;
8036;SDS011;4061;51.360;7.340;2023-06-14T01:45:48;3.05;;;2.67;;
8036;SDS011;4061;51.360;7.340;2023-06-14T01:48:15;5.68;;;2.63;;
8036;SDS011;4061;51.360;7.340;2023-06-14T01:50:43;5.35;;;2.47;;
8036;SDS011;4061;51.360;7.340;2023-06-14T01:53:10;9.63;;;3.05;;
8036;SDS011;4061;51.360;7.340;2023-06-14T01:55:37;9.52;;;3.03;;
8036;SDS011;4061;51.360;7.340;2023-06-14T01:58:09;7.45;;;2.72;;
8036;SDS011;4061;51.360;7.340;2023-06-14T02:00:36;4.03;;;2.60;;
8036;SDS011;4061;51.360;7.340;2023-06-14T02:03:03;3.40;;;2.72;;
8036;SDS011;4061;51.360;7.340;2023-06-14T02:05:30;4.65;;;2.90;;
8036;SDS011;4061;51.360;7.340;2023-06-14T02:07:59;4.35;;;2.60;;
8036;SDS011;4061;51.360;7.340;2023-06-14T02:10:26;4.07;;;2.40;;
8036;SDS011;4061;51.360;7.340;2023-06-14T02:12:53;2.55;;;2.35;;
8036;SDS011;4061;51.360;7.340;2023-06-14T02:15:21;4.32;;;2.78;;
8036;SDS011;4061;51.360;7.340;2023-06-14T02:17:49;2.63;;;2.38;;
8036;SDS011;4061;51.360;7.340;2023-06-14T02:20:16;3.88;;;2.58;;
8036;SDS011;4061;51.360;7.340;2023-06-14T02:22:43;3.97;;;2.95;;
8036;SDS011;4061;51.360;7.340;2023-06-14T02:25:10;2.83;;;2.05;;
8036;SDS011;4061;51.360;7.340;2023-06-14T02:27:37;3.42;;;2.28;;
8036;SDS011;4061;51.360;7.340;2023-06-14T02:30:05;6.05;;;2.88;;
8036;SDS011;4061;51.360;7.340;2023-06-14T02:32:33;2.17;;;1.98;;
8036;SDS011;4061;51.360;7.340;2023-06-14T02:35:00;6.45;;;2.28;;
8036;SDS011;4061;51.360;7.340;2023-06-14T02:37:28;9.23;;;2.50;;
8036;SDS011;4061;51.360;7.340;2023-06-14T02:39:55;6.35;;;2.63;;
8036;SDS011;4061;51.360;7.340;2023-06-14T02:42:22;4.40;;;2.38;;
8036;SDS011;4061;51.360;7.340;2023-06-14T02:44:49;3.72;;;2.70;;
8036;SDS011;4061;51.360;7.340;2023-06-14T02:47:16;4.22;;;2.80;;
8036;SDS011;4061;51.360;7.340;2023-06-14T02:49:45;3.08;;;2.45;;
8036;SDS011;4061;51.360;7.340;2023-06-14T02:52:12;3.40;;;2.50;;
8036;SDS011;4061;51.360;7.340;2023-06-14T02:54:39;5.15;;;2.75;;
8036;SDS011;4061;51.360;7.340;2023-06-14T02:57:06;4.53;;;2.20;;
8036;SDS011;4061;51.360;7.340;2023-06-14T02:59:34;4.32;;;2.30;;
8036;SDS011;4061;51.360;7.340;2023-06-14T03:02:01;2.50;;;2.30;;
8036;SDS011;4061;51.360;7.340;2023-06-14T03:04:28;2.83;;;2.58;;
8036;SDS011;4061;51.360;7.340;2023-06-14T03:07:03;3.38;;;2.40;;
8036;SDS011;4061;51.360;7.340;2023-06-14T03:09:34;5.63;;;2.20;;
8036;SDS011;4061;51.360;7.340;2023-06-14T03:12:01;2.83;;;2.55;;
8036;SDS011;4061;51.360;7.340;2023-06-14T03:14:28;2.50;;;2.30;;
8036;SDS011;4061;51.360;7.340;2023-06-14T03:16:56;2.45;;;2.25;;
8036;SDS011;4061;51.360;7.340;2023-06-14T03:19:24;3.42;;;3.03;;
8036;SDS011;4061;51.360;7.340;2023-06-14T03:21:51;3.70;;;2.92;;
8036;SDS011;4061;51.360;7.340;2023-06-14T03:24:23;4.75;;;2.88;;
8036;SDS011;4061;51.360;7.340;2023-06-14T03:26:52;3.05;;;2.67;;
8036;SDS011;4061;51.360;7.340;2023-06-14T03:29:19;4.85;;;2.53;;
8036;SDS011;4061;51.360;7.340;2023-06-14T03:31:56;3.00;;;2.63;;
8036;SDS011;4061;51.360;7.340;2023-06-14T03:34:23;5.15;;;2.72;;
8036;SDS011;4061;51.360;7.340;2023-06-14T03:36:50;3.33;;;2.50;;
8036;SDS011;4061;51.360;7.340;2023-06-14T03:39:18;5.10;;;2.40;;
8036;SDS011;4061;51.360;7.340;2023-06-14T03:41:46;4.85;;;2.63;;
8036;SDS011;4061;51.360;7.340;2023-06-14T03:44:14;2.70;;;2.50;;
8036;SDS011;4061;51.360;7.340;2023-06-14T03:46:41;4.22;;;2.58;;
8036;SDS011;4061;51.360;7.340;2023-06-14T03:49:08;2.55;;;2.17;;
8036;SDS011;4061;51.360;7.340;2023-06-14T03:51:36;5.93;;;2.55;;
8036;SDS011;4061;51.360;7.340;2023-06-14T03:54:03;2.45;;;2.15;;
8036;SDS011;4061;51.360;7.340;2023-06-14T03:56:30;2.40;;;2.20;;
8036;SDS011;4061;51.360;7.340;2023-06-14T03:58:58;2.65;;;1.95;;
8036;SDS011;4061;51.360;7.340;2023-06-14T04:01:25;2.58;;;1.85;;
8036;SDS011;4061;51.360;7.340;2023-06-14T04:03:54;3.63;;;1.83;;
8036;SDS011;4061;51.360;7.340;2023-06-14T04:06:21;1.98;;;1.88;;
8036;SDS011;4061;51.360;7.340;2023-06-14T04:08:49;2.45;;;2.25;;
8036;SDS011;4061;51.360;7.340;2023-06-14T04:11:17;3.15;;;2.42;;
8036;SDS011;4061;51.360;7.340;2023-06-14T04:13:44;3.38;;;1.98;;
8036;SDS011;4061;51.360;7.340;2023-06-14T04:16:13;2.92;;;2.10;;
8036;SDS011;4061;51.360;7.340;2023-06-14T04:18:40;3.22;;;2.40;;
8036;SDS011;4061;51.360;7.340;2023-06-14T04:21:07;2.22;;;2.00;;
8036;SDS011;4061;51.360;7.340;2023-06-14T04:23:34;4.47;;;2.08;;
8036;SDS011;4061;51.360;7.340;2023-06-14T04:26:03;1.83;;;1.73;;
8036;SDS011;4061;51.360;7.340;2023-06-14T04:28:30;4.00;;;2.60;;
8036;SDS011;4061;51.360;7.340;2023-06-14T04:30:57;5.78;;;2.03;;
8036;SDS011;4061;51.360;7.340;2023-06-14T04:33:27;4.18;;;1.95;;
8036;SDS011;4061;51.360;7.340;2023-06-14T04:35:54;8.52;;;2.67;;
8036;SDS011;4061;51.360;7.340;2023-06-14T04:38:21;7.65;;;2.35;;
8036;SDS011;4061;51.360;7.340;2023-06-14T04:40:50;1.92;;;1.83;;
8036;SDS011;4061;51.360;7.340;2023-06-14T04:43:18;3.88;;;2.20;;
8036;SDS011;4061;51.360;7.340;2023-06-14T04:45:50;2.67;;;2.22;;
8036;SDS011;4061;51.360;7.340;2023-06-14T04:48:17;3.80;;;2.67;;
8036;SDS011;4061;51.360;7.340;2023-06-14T04:50:46;2.55;;;1.90;;
8036;SDS011;4061;51.360;7.340;2023-06-14T04:53:17;6.05;;;2.50;;
8036;SDS011;4061;51.360;7.340;2023-06-14T04:55:46;3.30;;;1.90;;
8036;SDS011;4061;51.360;7.340;2023-06-14T04:58:13;5.07;;;1.80;;
8036;SDS011;4061;51.360;7.340;2023-06-14T05:00:40;2.05;;;1.85;;
8036;SDS011;4061;51.360;7.340;2023-06-14T05:03:08;2.42;;;1.83;;
8036;SDS011;4061;51.360;7.340;2023-06-14T05:05:38;4.78;;;3.42;;
8036;SDS011;4061;51.360;7.340;2023-06-14T05:08:06;2.97;;;1.98;;
8036;SDS011;4061;51.360;7.340;2023-06-14T05:10:33;3.05;;;2.28;;
8036;SDS011;4061;51.360;7.340;2023-06-14T05:13:01;5.03;;;2.40;;
8036;SDS011;4061;51.360;7.340;2023-06-14T05:15:28;3.22;;;2.30;;
8036;SDS011;4061;51.360;7.340;2023-06-14T05:17:55;4.97;;;2.42;;
8036;SDS011;4061;51.360;7.340;2023-06-14T05:20:22;6.47;;;2.55;;
8036;SDS011;4061;51.360;7.340;2023-06-14T05:22:51;6.40;;;2.47;;
8036;SDS011;4061;51.360;7.340;2023-06-14T05:25:20;3.97;;;2.22;;
8036;SDS011;4061;51.360;7.340;2023-06-14T05:27:47;4.05;;;2.33;;
8036;SDS011;4061;51.360;7.340;2023-06-14T05:30:14;6.45;;;2.90;;
8036;SDS011;4061;51.360;7.340;2023-06-14T05:32:42;2.40;;;2.20;;
8036;SDS011;4061;51.360;7.340;2023-06-14T05:35:09;2.63;;;2.30;;
8036;SDS011;4061;51.360;7.340;2023-06-14T05:37:36;7.05;;;2.28;;
8036;SDS011;4061;51.360;7.340;2023-06-14T05:40:03;4.78;;;2.30;;
8036;SDS011;4061;51.360;7.340;2023-06-14T05:42:33;6.72;;;2.22;;
8036;SDS011;4061;51.360;7.340;2023-06-14T05:45:00;7.47;;;2.60;;
8036;SDS011;4061;51.360;7.340;2023-06-14T05:47:27;5.05;;;2.25;;
8036;SDS011;4061;51.360;7.340;2023-06-14T05:49:54;7.10;;;2.80;;
8036;SDS011;4061;51.360;7.340;2023-06-14T05:52:21;7.07;;;2.20;;
8036;SDS011;4061;51.360;7.340;2023-06-14T05:54:48;4.07;;;2.35;;
8036;SDS011;4061;51.360;7.340;2023-06-14T05:57:15;3.53;;;2.33;;
8036;SDS011;4061;51.360;7.340;2023-06-14T05:59:43;6.50;;;1.75;;
8036;SDS011;4061;51.360;7.340;2023-06-14T06:02:10;2.30;;;2.08;;
8036;SDS011;4061;51.360;7.340;2023-06-14T06:04:38;4.18;;;2.22;;
8036;SDS011;4061;51.360;7.340;2023-06-14T06:07:05;7.13;;;2.10;;
8036;SDS011;4061;51.360;7.340;2023-06-14T06:09:32;4.85;;;2.20;;
8036;SDS011;4061;51.360;7.340;2023-06-14T06:11:59;2.22;;;1.95;;
8036;SDS011;4061;51.360;7.340;2023-06-14T06:14:26;2.63;;;2.40;;
8036;SDS011;4061;51.360;7.340;2023-06-14T06:16:54;4.78;;;1.98;;
8036;SDS011;4061;51.360;7.340;2023-06-14T06:19:21;9.63;;;2.83;;
8036;SDS011;4061;51.360;7.340;2023-06-14T06:21:48;1.92;;;1.63;;
8036;SDS011;4061;51.360;7.340;2023-06-14T06:24:15;4.78;;;2.33;;
8036;SDS011;4061;51.360;7.340;2023-06-14T06:26:42;1.95;;;1.80;;
8036;SDS011;4061;51.360;7.340;2023-06-14T06:29:10;1.88;;;1.73;;
8036;SDS011;4061;51.360;7.340;2023-06-14T06:31:37;2.47;;;1.60;;
8036;SDS011;4061;51.360;7.340;2023-06-14T06:34:05;2.25;;;1.90;;
8036;SDS011;4061;51.360;7.340;2023-06-14T06:36:33;4.57;;;1.80;;
8036;SDS011;4061;51.360;7.340;2023-06-14T06:39:00;2.85;;;1.70;;
8036;SDS011;4061;51.360;7.340;2023-06-14T06:41:31;8.10;;;1.52;;
8036;SDS011;4061;51.360;7.340;2023-06-14T06:44:00;1.73;;;1.63;;
8036;SDS011;4061;51.360;7.340;2023-06-14T06:46:28;4.25;;;2.05;;
8036;SDS011;4061;51.360;7.340;2023-06-14T06:48:56;6.40;;;2.50;;
8036;SDS011;4061;51.360;7.340;2023-06-14T06:51:25;1.40;;;1.35;;
8036;SDS011;4061;51.360;7.340;2023-06-14T06:53:52;1.75;;;1.65;;
8036;SDS011;4061;51.360;7.340;2023-06-14T06:56:19;5.88;;;1.58;;
8036;SDS011;4061;51.360;7.340;2023-06-14T06:58:48;4.68;;;1.23;;
8036;SDS011;4061;51.360;7.340;2023-06-14T07:01:15;5.82;;;1.40;;
8036;SDS011;4061;51.360;7.340;2023-06-14T07:03:42;1.52;;;1.40;;
8036;SDS011;4061;51.360;7.340;2023-06-14T07:06:09;3.10;;;1.30;;
8036;SDS011;4061;51.360;7.340;2023-06-14T07:08:38;1.20;;;1.20;;
8036;SDS011;4061;51.360;7.340;2023-06-14T07:11:05;1.23;;;1.13;;
8036;SDS011;4061;51.360;7.340;2023-06-14T07:13:32;3.22;;;1.17;;
8036;SDS011;4061;51.360;7.340;2023-06-14T07:15:59;1.45;;;1.30;;
8036;SDS011;4061;51.360;7.340;2023-06-14T07:18:27;4.22;;;1.23;;
8036;SDS011;4061;51.360;7.340;2023-06-14T07:20:54;1.23;;;1.13;;
8036;SDS011;4061;51.360;7.340;2023-06-14T07:23:22;3.05;;;1.00;;
8036;SDS011;4061;51.360;7.340;2023-06-14T07:25:50;1.38;;;1.20;;
8036;SDS011;4061;51.360;7.340;2023-06-14T07:28:17;7.82;;;1.15;;
8036;SDS011;4061;51.360;7.340;2023-06-14T07:30:44;3.33;;;0.82;;
8036;SDS011;4061;51.360;7.340;2023-06-14T07:33:13;1.60;;;1.23;;
8036;SDS011;4061;51.360;7.340;2023-06-14T07:35:40;2.95;;;1.00;;
8036;SDS011;4061;51.360;7.340;2023-06-14T07:38:07;2.17;;;1.20;;
8036;SDS011;4061;51.360;7.340;2023-06-14T07:40:34;4.35;;;0.80;;
8036;SDS011;4061;51.360;7.340;2023-06-14T07:43:02;3.25;;;0.90;;
8036;SDS011;4061;51.360;7.340;2023-06-14T07:45:30;0.85;;;0.82;;
8036;SDS011;4061;51.360;7.340;2023-06-14T07:47:57;1.88;;;1.08;;
8036;SDS011;4061;51.360;7.340;2023-06-14T07:50:24;1.02;;;1.02;;
8036;SDS011;4061;51.360;7.340;2023-06-14T07:52:51;2.38;;;1.15;;
8036;SDS011;4061;51.360;7.340;2023-06-14T07:55:18;3.22;;;1.10;;
8036;SDS011;4061;51.360;7.340;2023-06-14T07:57:45;0.90;;;0.70;;
8036;SDS011;4061;51.360;7.340;2023-06-14T08:00:14;2.30;;;0.80;;
8036;SDS011;4061;51.360;7.340;2023-06-14T08:02:43;1.20;;;1.10;;
8036;SDS011;4061;51.360;7.340;2023-06-14T08:05:10;1.17;;;1.13;;
8036;SDS011;4061;51.360;7.340;2023-06-14T08:07:37;3.70;;;1.15;;
8036;SDS011;4061;51.360;7.340;2023-06-14T08:10:05;3.72;;;0.82;;
8036;SDS011;4061;51.360;7.340;2023-06-14T08:12:33;1.38;;;0.85;;
8036;SDS011;4061;51.360;7.340;2023-06-14T08:15:00;1.88;;;0.80;;
8036;SDS011;4061;51.360;7.340;2023-06-14T08:17:29;0.80;;;0.80;;
8036;SDS011;4061;51.360;7.340;2023-06-14T08:19:56;1.27;;;0.50;;
8036;SDS011;4061;51.360;7.340;2023-06-14T08:22:23;4.50;;;0.80;;
8036;SDS011;4061;51.360;7.340;2023-06-14T08:24:50;3.08;;;0.65;;
8036;SDS011;4061;51.360;7.340;2023-06-14T08:27:19;3.00;;;1.00;;
8036;SDS011;4061;51.360;7.340;2023-06-14T08:29:46;2.20;;;0.50;;
8036;SDS011;4061;51.360;7.340;2023-06-14T08:32:13;1.13;;;0.80;;
8036;SDS011;4061;51.360;7.340;2023-06-14T08:34:41;0.80;;;0.80;;
8036;SDS011;4061;51.360;7.340;2023-06-14T08:37:08;1.23;;;1.02;;
8036;SDS011;4061;51.360;7.340;2023-06-14T08:39:35;1.20;;;1.10;;
8036;SDS011;4061;51.360;7.340;2023-06-14T08:42:02;0.85;;;0.85;;
8036;SDS011;4061;51.360;7.340;2023-06-14T08:44:31;1.00;;;0.75;;
8036;SDS011;4061;51.360;7.340;2023-06-14T08:46:58;0.85;;;0.82;;
8036;SDS011;4061;51.360;7.340;2023-06-14T08:49:26;3.25;;;0.75;;
8036;SDS011;4061;51.360;7.340;2023-06-14T08:51:56;0.70;;;0.70;;
8036;SDS011;4061;51.360;7.340;2023-06-14T08:54:25;0.60;;;0.60;;
8036;SDS011;4061;51.360;7.340;2023-06-14T08:56:56;1.35;;;0.65;;
8036;SDS011;4061;51.360;7.340;2023-06-14T08:59:23;0.77;;;0.70;;
8036;SDS011;4061;51.360;7.340;2023-06-14T09:01:51;0.80;;;0.80;;
8036;SDS011;4061;51.360;7.340;2023-06-14T09:04:19;0.85;;;0.85;;
8036;SDS011;4061;51.360;7.340;2023-06-14T09:06:46;0.98;;;0.90;;
8036;SDS011;4061;51.360;7.340;2023-06-14T09:09:18;0.98;;;0.80;;
8036;SDS011;4061;51.360;7.340;2023-06-14T09:11:46;0.70;;;0.70;;
8036;SDS011;4061;51.360;7.340;2023-06-14T09:14:13;1.95;;;0.80;;
8036;SDS011;4061;51.360;7.340;2023-06-14T09:16:40;2.13;;;0.68;;
8036;SDS011;4061;51.360;7.340;2023-06-14T09:19:07;0.60;;;0.60;;
8036;SDS011;4061;51.360;7.340;2023-06-14T09:21:35;0.60;;;0.60;;
8036;SDS011;4061;51.360;7.340;2023-06-14T09:24:02;0.73;;;0.73;;
8036;SDS011;4061;51.360;7.340;2023-06-14T09:26:31;0.80;;;0.80;;
8036;SDS011;4061;51.360;7.340;2023-06-14T09:28:58;1.75;;;0.80;;
8036;SDS011;4061;51.360;7.340;2023-06-14T09:31:25;3.60;;;0.60;;
8036;SDS011;4061;51.360;7.340;2023-06-14T09:33:56;1.05;;;0.88;;
8036;SDS011;4061;51.360;7.340;2023-06-14T09:36:24;2.08;;;1.08;;
8036;SDS011;4061;51.360;7.340;2023-06-14T09:38:51;0.60;;;0.60;;
8036;SDS011;4061;51.360;7.340;2023-06-14T09:41:19;0.63;;;0.57;;
8036;SDS011;4061;51.360;7.340;2023-06-14T09:43:47;0.98;;;0.73;;
8036;SDS011;4061;51.360;7.340;2023-06-14T09:46:15;6.22;;;0.90;;
8036;SDS011;4061;51.360;7.340;2023-06-14T09:48:42;2.72;;;0.80;;
8036;SDS011;4061;51.360;7.340;2023-06-14T09:51:10;0.95;;;0.70;;
8036;SDS011;4061;51.360;7.340;2023-06-14T09:53:37;2.22;;;0.60;;
8036;SDS011;4061;51.360;7.340;2023-06-14T09:56:04;0.68;;;0.68;;
8036;SDS011;4061;51.360;7.340;2023-06-14T09:58:32;0.60;;;0.60;;
8036;SDS011;4061;51.360;7.340;2023-06-14T10:01:01;4.00;;;0.82;;
8036;SDS011;4061;51.360;7.340;2023-06-14T10:03:30;7.95;;;0.73;;
8036;SDS011;4061;51.360;7.340;2023-06-14T10:05:58;0.60;;;0.60;;
8036;SDS011;4061;51.360;7.340;2023-06-14T10:08:27;2.13;;;0.60;;
8036;SDS011;4061;51.360;7.340;2023-06-14T10:10:55;1.38;;;0.70;;
8036;SDS011;4061;51.360;7.340;2023-06-14T10:13:22;0.73;;;0.73;;
8036;SDS011;4061;51.360;7.340;2023-06-14T10:15:52;3.17;;;0.52;;
8036;SDS011;4061;51.360;7.340;2023-06-14T10:18:24;0.70;;;0.70;;
8036;SDS011;4061;51.360;7.340;2023-06-14T10:20:53;0.30;;;0.30;;
8036;SDS011;4061;51.360;7.340;2023-06-14T10:23:22;1.05;;;0.43;;
8036;SDS011;4061;51.360;7.340;2023-06-14T10:25:50;0.65;;;0.65;;
8036;SDS011;4061;51.360;7.340;2023-06-14T10:28:17;1.08;;;0.70;;
8036;SDS011;4061;51.360;7.340;2023-06-14T10:31:02;7.43;;;0.63;;
8036;SDS011;4061;51.360;7.340;2023-06-14T10:33:31;0.55;;;0.55;;
8036;SDS011;4061;51.360;7.340;2023-06-14T10:36:08;4.97;;;0.68;;
8036;SDS011;4061;51.360;7.340;2023-06-14T10:38:36;1.05;;;1.05;;
8036;SDS011;4061;51.360;7.340;2023-06-14T10:41:03;0.88;;;0.60;;
8036;SDS011;4061;51.360;7.340;2023-06-14T10:43:30;0.95;;;0.85;;
8036;SDS011;4061;51.360;7.340;2023-06-14T10:48:41;0.70;;;0.70;;
8036;SDS011;4061;51.360;7.340;2023-06-14T10:51:14;0.47;;;0.47;;
8036;SDS011;4061;51.360;7.340;2023-06-14T10:53:45;0.80;;;0.80;;
8036;SDS011;4061;51.360;7.340;2023-06-14T10:56:22;0.93;;;0.80;;
8036;SDS011;4061;51.360;7.340;2023-06-14T10:58:51;0.55;;;0.55;;
8036;SDS011;4061;51.360;7.340;2023-06-14T11:01:19;0.52;;;0.50;;
8036;SDS011;4061;51.360;7.340;2023-06-14T11:03:51;2.95;;;0.70;;
8036;SDS011;4061;51.360;7.340;2023-06-14T11:06:21;1.92;;;0.57;;
8036;SDS011;4061;51.360;7.340;2023-06-14T11:08:58;3.97;;;0.40;;
8036;SDS011;4061;51.360;7.340;2023-06-14T11:11:31;0.50;;;0.50;;
8036;SDS011;4061;51.360;7.340;2023-06-14T11:13:59;2.00;;;0.60;;
8036;SDS011;4061;51.360;7.340;2023-06-14T11:16:27;0.60;;;0.60;;
8036;SDS011;4061;51.360;7.340;2023-06-14T11:18:55;2.30;;;0.52;;
8036;SDS011;4061;51.360;7.340;2023-06-14T11:21:23;0.60;;;0.60;;
8036;SDS011;4061;51.360;7.340;2023-06-14T11:23:56;2.85;;;0.50;;
8036;SDS011;4061;51.360;7.340;2023-06-14T11:26:26;1.73;;;0.90;;
8036;SDS011;4061;51.360;7.340;2023-06-14T11:28:56;0.65;;;0.65;;
8036;SDS011;4061;51.360;7.340;2023-06-14T11:31:24;0.57;;;0.55;;
8036;SDS011;4061;51.360;7.340;2023-06-14T11:33:52;1.05;;;0.95;;
8036;SDS011;4061;51.360;7.340;2023-06-14T11:36:21;0.70;;;0.70;;
8036;SDS011;4061;51.360;7.340;2023-06-14T11:38:48;0.50;;;0.50;;
8036;SDS011;4061;51.360;7.340;2023-06-14T11:41:15;7.00;;;0.93;;
8036;SDS011;4061;51.360;7.340;2023-06-14T11:43:42;1.58;;;1.00;;
8036;SDS011;4061;51.360;7.340;2023-06-14T11:46:12;0.90;;;0.80;;
8036;SDS011;4061;51.360;7.340;2023-06-14T11:48:40;12.25;;;0.95;;
8036;SDS011;4061;51.360;7.340;2023-06-14T11:51:08;1.17;;;1.08;;
8036;SDS011;4061;51.360;7.340;2023-06-14T11:53:37;1.30;;;0.68;;
8036;SDS011;4061;51.360;7.340;2023-06-14T11:56:04;2.55;;;0.80;;
8036;SDS011;4061;51.360;7.340;2023-06-14T11:58:31;2.85;;;0.90;;
8036;SDS011;4061;51.360;7.340;2023-06-14T12:00:58;2.75;;;1.38;;
8036;SDS011;4061;51.360;7.340;2023-06-14T12:03:28;2.50;;;1.67;;
8036;SDS011;4061;51.360;7.340;2023-06-14T12:06:01;0.90;;;0.90;;
8036;SDS011;4061;51.360;7.340;2023-06-14T12:08:32;1.25;;;0.68;;
8036;SDS011;4061;51.360;7.340;2023-06-14T12:11:05;0.80;;;0.80;;
8036;SDS011;4061;51.360;7.340;2023-06-14T12:13:33;1.25;;;1.15;;
8036;SDS011;4061;51.360;7.340;2023-06-14T12:16:01;1.75;;;0.95;;
8036;SDS011;4061;51.360;7.340;2023-06-14T12:18:32;2.22;;;1.08;;
8036;SDS011;4061;51.360;7.340;2023-06-14T12:21:00;0.80;;;0.80;;
8036;SDS011;4061;51.360;7.340;2023-06-14T12:23:38;3.60;;;1.08;;
8036;SDS011;4061;51.360;7.340;2023-06-14T12:26:06;1.80;;;1.48;;
8036;SDS011;4061;51.360;7.340;2023-06-14T12:28:33;0.80;;;0.80;;
8036;SDS011;4061;51.360;7.340;2023-06-14T12:31:00;1.10;;;1.10;;
8036;SDS011;4061;51.360;7.340;2023-06-14T12:33:28;1.95;;;1.02;;
8036;SDS011;4061;51.360;7.340;2023-06-14T12:35:55;7.78;;;1.00;;
8036;SDS011;4061;51.360;7.340;2023-06-14T12:38:23;6.13;;;1.33;;
8036;SDS011;4061;51.360;7.340;2023-06-14T12:40:50;0.80;;;0.80;;
8036;SDS011;4061;51.360;7.340;2023-06-14T12:43:18;1.67;;;0.77;;
8036;SDS011;4061;51.360;7.340;2023-06-14T12:45:45;0.50;;;0.50;;
8036;SDS011;4061;51.360;7.340;2023-06-14T12:48:12;0.77;;;0.77;;
8036;SDS011;4061;51.360;7.340;2023-06-14T12:50:40;1.10;;;1.10;;
8036;SDS011;4061;51.360;7.340;2023-06-14T12:53:07;0.80;;;0.80;;
8036;SDS011;4061;51.360;7.340;2023-06-14T12:55:34;0.80;;;0.80;;
8036;SDS011;4061;51.360;7.340;2023-06-14T12:58:01;0.80;;;0.80;;
8036;SDS011;4061;51.360;7.340;2023-06-14T13:00:30;1.60;;;0.65;;
8036;SDS011;4061;51.360;7.340;2023-06-14T13:02:57;5.60;;;0.80;;
8036;SDS011;4061;51.360;7.340;2023-06-14T13:05:24;3.50;;;1.00;;
8036;SDS011;4061;51.360;7.340;2023-06-14T13:07:51;6.47;;;0.82;;
8036;SDS011;4061;51.360;7.340;2023-06-14T13:10:18;3.20;;;0.95;;
8036;SDS011;4061;51.360;7.340;2023-06-14T13:12:45;3.22;;;0.93;;
8036;SDS011;4061;51.360;7.340;2023-06-14T13:15:12;0.95;;;0.70;;
8036;SDS011;4061;51.360;7.340;2023-06-14T13:17:41;1.55;;;0.90;;
8036;SDS011;4061;51.360;7.340;2023-06-14T13:20:13;3.15;;;2.33;;
8036;SDS011;4061;51.360;7.340;2023-06-14T13:22:40;0.98;;;0.98;;
8036;SDS011;4061;51.360;7.340;2023-06-14T13:25:07;1.20;;;0.90;;
8036;SDS011;4061;51.360;7.340;2023-06-14T13:27:34;4.85;;;1.17;;
8036;SDS011;4061;51.360;7.340;2023-06-14T13:30:02;1.10;;;1.10;;
8036;SDS011;4061;51.360;7.340;2023-06-14T13:32:30;0.90;;;0.90;;
8036;SDS011;4061;51.360;7.340;2023-06-14T13:34:58;1.35;;;1.00;;
8036;SDS011;4061;51.360;7.340;2023-06-14T13:37:26;0.93;;;0.93;;
8036;SDS011;4061;51.360;7.340;2023-06-14T13:39:53;4.68;;;1.10;;
8036;SDS011;4061;51.360;7.340;2023-06-14T13:42:20;6.55;;;0.88;;
8036;SDS011;4061;51.360;7.340;2023-06-14T13:44:47;4.43;;;0.80;;
8036;SDS011;4061;51.360;7.340;2023-06-14T13:47:16;0.98;;;0.85;;
8036;SDS011;4061;51.360;7.340;2023-06-14T13:49:43;1.55;;;0.90;;
8036;SDS011;4061;51.360;7.340;2023-06-14T13:52:11;0.70;;;0.70;;
8036;SDS011;4061;51.360;7.340;2023-06-14T13:54:39;0.93;;;0.85;;
8036;SDS011;4061;51.360;7.340;2023-06-14T13:57:07;4.13;;;0.85;;
8036;SDS011;4061;51.360;7.340;2023-06-14T13:59:37;4.75;;;0.95;;
8036;SDS011;4061;51.360;7.340;2023-06-14T14:02:05;5.25;;;1.20;;
8036;SDS011;4061;51.360;7.340;2023-06-14T14:04:32;2.42;;;1.08;;
8036;SDS011;4061;51.360;7.340;2023-06-14T14:07:00;0.77;;;0.73;;
8036;SDS011;4061;51.360;7.340;2023-06-14T14:09:28;1.02;;;0.98;;
8036;SDS011;4061;51.360;7.340;2023-06-14T14:11:55;0.80;;;0.80;;
8036;SDS011;4061;51.360;7.340;2023-06-14T14:14:22;0.88;;;0.88;;
8036;SDS011;4061;51.360;7.340;2023-06-14T14:16:49;1.98;;;1.00;;
8036;SDS011;4061;51.360;7.340;2023-06-14T14:19:18;3.10;;;1.00;;
8036;SDS011;4061;51.360;7.340;2023-06-14T14:21:45;1.58;;;0.85;;
8036;SDS011;4061;51.360;7.340;2023-06-14T14:24:12;4.00;;;1.65;;
8036;SDS011;4061;51.360;7.340;2023-06-14T14:26:40;0.90;;;0.90;;
8036;SDS011;4061;51.360;7.340;2023-06-14T14:29:07;1.13;;;0.63;;
8036;SDS011;4061;51.360;7.340;2023-06-14T14:31:36;1.10;;;1.10;;
8036;SDS011;4061;51.360;7.340;2023-06-14T14:34:03;0.75;;;0.75;;
8036;SDS011;4061;51.360;7.340;2023-06-14T14:36:30;2.15;;;0.98;;
8036;SDS011;4061;51.360;7.340;2023-06-14T14:39:01;2.10;;;0.95;;
8036;SDS011;4061;51.360;7.340;2023-06-14T14:41:28;2.50;;;1.17;;
8036;SDS011;4061;51.360;7.340;2023-06-14T14:43:57;2.17;;;0.98;;
8036;SDS011;4061;51.360;7.340;2023-06-14T14:46:25;1.17;;;0.90;;
8036;SDS011;4061;51.360;7.340;2023-06-14T14:48:52;3.08;;;1.20;;
8036;SDS011;4061;51.360;7.340;2023-06-14T14:51:19;0.90;;;0.90;;
8036;SDS011;4061;51.360;7.340;2023-06-14T14:53:46;2.20;;;1.02;;
8036;SDS011;4061;51.360;7.340;2023-06-14T14:56:13;1.55;;;0.90;;
8036;SDS011;4061;51.360;7.340;2023-06-14T14:58:40;1.10;;;0.80;;
8036;SDS011;4061;51.360;7.340;2023-06-14T15:01:09;2.22;;;1.20;;
8036;SDS011;4061;51.360;7.340;2023-06-14T15:03:36;1.85;;;1.20;;
8036;SDS011;4061;51.360;7.340;2023-06-14T15:06:03;1.38;;;1.10;;
8036;SDS011;4061;51.360;7.340;2023-06-14T15:08:30;1.00;;;1.00;;
8036;SDS011;4061;51.360;7.340;2023-06-14T15:10:57;11.13;;;0.90;;
8036;SDS011;4061;51.360;7.340;2023-06-14T15:13:25;3.50;;;1.10;;
8036;SDS011;4061;51.360;7.340;2023-06-14T15:15:53;1.13;;;1.00;;
8036;SDS011;4061;51.360;7.340;2023-06-14T15:18:21;4.97;;;1.30;;
8036;SDS011;4061;51.360;7.340;2023-06-14T15:20:48;4.97;;;1.10;;
8036;SDS011;4061;51.360;7.340;2023-06-14T15:23:15;1.10;;;1.10;;